Time;durP1;ratioP1;P1;durP2;ratioP2;P2;SDS_P1;SDS_P2;PMS_P1;PMS_P2;Temp;Humidity;BMP_temperature;BMP_pressure;BME280_temperature;BME280_humidity;BME280_pressure;Samples;Min_cycle;Max_cycle;Signal;HPM_P1;HPM_P2
2021/12/08 00:00:22;;;;;;;;;;;;;;;;;;1037639;28;2335;-66
2021/12/08 00:01:07;;;;;;;;;;;;;;;;;;1037316;28;3821;-66
2021/12/08 00:01:38;;;;;;;;;;;;;;;;;;1032778;28;4140;-67
2021/12/08 00:02:09;;;;;;;;;;;;;;;;;;1029280;28;3469;-66
2021/12/08 00:02:39;;;;;;;;;;;;;;;;;;1028362;28;4119;-66
2021/12/08 00:03:11;;;;;;;;;;;;;;;;;;1031707;28;2597;-67
2021/12/08 00:03:41;;;;;;;;;;;;;;;;;;1033751;28;4088;-67
2021/12/08 00:04:11;;;;;;;;;;;;;;;;;;1042134;28;3030;-66
2021/12/08 00:04:42;;;;;;;;;;;;;;;;;;1039531;28;3968;-66
2021/12/08 00:05:13;;;;;;;;;;;;;;;;;;1039837;28;2944;-65
2021/12/08 00:05:45;;;;;;;;;;;;;;;;;;1043913;28;3819;-65
2021/12/08 00:06:15;;;;;;;;;;;;;;;;;;1035233;28;3413;-66
2021/12/08 00:06:45;;;;;;;;;;;;;;;;;;1035985;28;3916;-66
2021/12/08 00:07:15;;;;;;;;;;;;;;;;;;1035905;28;3830;-66
2021/12/08 00:07:46;;;;;;;;;;;;;;;;;;1038957;28;3880;-65
2021/12/08 00:08:19;;;;;;;;;;;;;;;;;;1036774;28;3991;-67
2021/12/08 00:09:02;;;;;;;;;;;;;;;;;;1037393;28;3907;-67
2021/12/08 00:09:48;;;;;;;;;;;;;;;;;;1037768;28;2613;-68
2021/12/08 00:13:09;;;;;;;;;;;;;;;;;;1043218;28;3764;-65
2021/12/08 00:13:39;;;;;;;;;;;;;;;;;;1039302;28;4263;-65
2021/12/08 00:14:10;;;;;;;;;;;;;;;;;;1041953;28;3097;-66
2021/12/08 00:14:40;;;;;;;;;;;;;;;;;;1039555;28;4102;-66
2021/12/08 00:15:11;;;;;;;;;;;;;;;;;;1038149;28;2976;-66
2021/12/08 00:15:49;;;;;;;;;;;;;;;;;;1038526;28;4258;-66
2021/12/08 00:16:19;;;;;;;;;;;;;;;;;;1039502;28;3366;-67
2021/12/08 00:16:49;;;;;;;;;;;;;;;;;;1035962;28;4057;-68
2021/12/08 00:17:19;;;;;;;;;;;;;;;;;;1040557;28;3336;-66
2021/12/08 00:17:50;;;;;;;;;;;;;;;;;;1040229;28;4356;-67
2021/12/08 00:18:23;;;;;;;;;;;;;;;;;;1038971;28;3106;-66
2021/12/08 00:18:57;;;;;;;;;;;;;;;;;;1038554;28;3919;-66
2021/12/08 00:19:28;;;;;;;;;;;;;;;;;;1031157;28;2643;-65
2021/12/08 00:20:01;;;;;;;;;;;;;;;;;;1030041;28;5355;-66
2021/12/08 00:20:33;;;;;;;;;;;;;;;;;;1033361;28;1596;-66
2021/12/08 00:21:04;;;;;;;;;;;;;;;;;;1033326;28;3873;-66
2021/12/08 00:21:35;;;;;;;;;;;;;;;;;;1039808;28;4030;-66
2021/12/08 00:22:05;;;;;;;;;;;;;;;;;;1034418;28;3149;-66
2021/12/08 00:22:35;;;;;;;;;;;;;;;;;;1035611;28;4454;-65
2021/12/08 00:23:06;;;;;;;;;;;;;;;;;;1036785;28;1707;-66
2021/12/08 00:23:36;;;;;;;;;;;;;;;;;;1035096;28;4475;-66
2021/12/08 00:24:07;;;;;;;;;;;;;;;;;;1038407;28;2535;-67
2021/12/08 00:24:37;;;;;;;;;;;;;;;;;;1039275;28;3810;-66
2021/12/08 00:25:08;;;;;;;;;;;;;;;;;;1036628;28;3863;-66
2021/12/08 00:25:38;;;;;;;;;;;;;;;;;;1038507;28;4091;-66
2021/12/08 00:26:09;;;;;;;;;;;;;;;;;;1042510;28;1590;-68
2021/12/08 00:26:39;;;;;;;;;;;;;;;;;;1041465;28;3826;-66
2021/12/08 00:27:09;;;;;;;;;;;;;;;;;;1040760;28;1785;-67
2021/12/08 00:27:39;;;;;;;;;;;;;;;;;;1041030;28;4121;-65
2021/12/08 00:28:10;;;;;;;;;;;;;;;;;;1037955;28;2951;-66
2021/12/08 00:28:40;;;;;;;;;;;;;;;;;;1038787;28;3876;-65
2021/12/08 00:29:11;;;;;;;;;;;;;;;;;;1038240;28;3229;-66
2021/12/08 00:29:41;;;;;;;;;;;;;;;;;;1041678;28;4238;-66
2021/12/08 00:30:12;;;;;;;;;;;;;;;;;;1039988;28;3336;-68
2021/12/08 00:30:43;;;;;;;;;;;;;;;;;;1038633;28;3901;-65
2021/12/08 00:31:13;;;;;;;;;;;;;;;;;;1036977;28;2042;-66
2021/12/08 00:31:46;;;;;;;;;;;;;;;;;;1038586;28;3902;-65
2021/12/08 00:32:19;;;;;;;;;;;;;;;;;;1034142;28;2656;-66
2021/12/08 00:32:54;;;;;;;;;;;;;;;;;;1032747;28;3917;-66
2021/12/08 00:33:27;;;;;;;;;;;;;;;;;;1033215;28;2029;-67
2021/12/08 00:33:57;;;;;;;;;;;;;;;;;;1032829;28;4089;-66
2021/12/08 00:34:27;;;;;;;;;;;;;;;;;;1035196;28;2903;-66
2021/12/08 00:34:58;;;;;;;;;;;;;;;;;;1036939;28;4234;-67
2021/12/08 00:35:28;;;;;;;;;;;;;;;;;;1038508;28;1999;-66
2021/12/08 00:36:00;;;;;;;;;;;;;;;;;;1037638;28;3882;-67
2021/12/08 00:36:40;;;;;;;;;;;;;;;;;;1037129;28;3001;-65
2021/12/08 00:37:11;;;;;;;;;;;;;;;;;;1037093;28;3800;-68
2021/12/08 00:37:42;;;;;;;;;;;;;;;;;;1038329;28;3883;-67
2021/12/08 00:38:13;;;;;;;;;;;;;;;;;;1038576;28;2285;-65
2021/12/08 00:38:43;;;;;;;;;;;;;;;;;;1038240;28;3885;-67
2021/12/08 00:39:14;;;;;;;;;;;;;;;;;;1038051;28;2343;-65
2021/12/08 00:39:44;;;;;;;;;;;;;;;;;;1039058;28;4079;-65
2021/12/08 00:40:16;;;;;;;;;;;;;;;;;;1038582;28;2398;-66
2021/12/08 00:40:47;;;;;;;;;;;;;;;;;;1037276;28;4078;-67
2021/12/08 00:41:17;;;;;;;;;;;;;;;;;;1038712;28;1988;-66
2021/12/08 00:41:47;;;;;;;;;;;;;;;;;;1038247;28;4185;-67
2021/12/08 00:42:18;;;;;;;;;;;;;;;;;;1038792;28;2643;-68
2021/12/08 00:42:49;;;;;;;;;;;;;;;;;;1037158;28;3925;-66
2021/12/08 00:43:20;;;;;;;;;;;;;;;;;;1036337;28;2783;-67
2021/12/08 00:43:50;;;;;;;;;;;;;;;;;;1035530;28;3912;-68
2021/12/08 00:44:20;;;;;;;;;;;;;;;;;;1034834;28;2836;-67
2021/12/08 00:44:51;;;;;;;;;;;;;;;;;;1035131;28;3888;-66
2021/12/08 00:45:21;;;;;;;;;;;;;;;;;;1035284;28;3319;-66
2021/12/08 00:45:52;;;;;;;;;;;;;;;;;;1034164;28;4549;-65
2021/12/08 00:46:22;;;;;;;;;;;;;;;;;;1035285;28;3083;-66
2021/12/08 00:46:53;;;;;;;;;;;;;;;;;;1036589;28;4137;-66
2021/12/08 00:47:23;;;;;;;;;;;;;;;;;;1037940;28;2978;-66
2021/12/08 00:47:54;;;;;;;;;;;;;;;;;;1041563;28;3942;-66
2021/12/08 00:48:24;;;;;;;;;;;;;;;;;;1042101;28;1905;-67
2021/12/08 00:48:54;;;;;;;;;;;;;;;;;;1040711;28;3967;-66
2021/12/08 00:49:24;;;;;;;;;;;;;;;;;;1037529;28;3396;-69
2021/12/08 00:49:55;;;;;;;;;;;;;;;;;;1041739;28;3896;-67
2021/12/08 00:50:26;;;;;;;;;;;;;;;;;;1038685;28;2795;-65
2021/12/08 00:50:57;;;;;;;;;;;;;;;;;;1038182;28;4055;-65
2021/12/08 00:51:27;;;;;;;;;;;;;;;;;;1039013;28;2777;-66
2021/12/08 00:51:57;;;;;;;;;;;;;;;;;;1037508;28;4059;-67
2021/12/08 00:52:29;;;;;;;;;;;;;;;;;;1035278;28;3272;-65
2021/12/08 00:52:59;;;;;;;;;;;;;;;;;;1037896;28;4377;-66
2021/12/08 00:53:30;;;;;;;;;;;;;;;;;;1039031;28;3352;-67
2021/12/08 00:54:00;;;;;;;;;;;;;;;;;;1037129;28;5338;-65
2021/12/08 00:54:31;;;;;;;;;;;;;;;;;;1038174;28;3058;-66
2021/12/08 00:55:02;;;;;;;;;;;;;;;;;;1037180;28;3877;-66
2021/12/08 00:55:33;;;;;;;;;;;;;;;;;;1038183;28;3434;-65
2021/12/08 00:56:04;;;;;;;;;;;;;;;;;;1041289;28;4011;-66
2021/12/08 00:56:34;;;;;;;;;;;;;;;;;;1041347;28;2927;-66
2021/12/08 00:57:04;;;;;;;;;;;;;;;;;;1041330;28;3795;-68
2021/12/08 00:57:35;;;;;;;;;;;;;;;;;;1035510;28;4289;-66
2021/12/08 00:58:06;;;;;;;;;;;;;;;;;;1038455;28;2589;-66
2021/12/08 00:58:36;;;;;;;;;;;;;;;;;;1037233;28;4110;-66
2021/12/08 00:59:06;;;;;;;;;;;;;;;;;;1038224;28;2975;-66
2021/12/08 00:59:37;;;;;;;;;;;;;;;;;;1036185;28;4112;-66
2021/12/08 01:00:10;;;;;;;;;;;;;;;;;;1038663;28;3488;-65
2021/12/08 01:00:42;;;;;;;;;;;;;;;;;;1037547;28;3917;-65
2021/12/08 01:01:13;;;;;;;;;;;;;;;;;;1038766;28;2467;-66
2021/12/08 01:01:43;;;;;;;;;;;;;;;;;;1032331;28;3989;-67
2021/12/08 01:02:14;;;;;;;;;;;;;;;;;;1034113;28;2810;-65
2021/12/08 01:02:44;;;;;;;;;;;;;;;;;;1034154;28;4073;-65
2021/12/08 01:03:16;;;;;;;;;;;;;;;;;;1034736;28;3291;-68
2021/12/08 01:03:47;;;;;;;;;;;;;;;;;;1040730;28;4165;-66
2021/12/08 01:04:17;;;;;;;;;;;;;;;;;;1040026;28;1907;-66
2021/12/08 01:04:47;;;;;;;;;;;;;;;;;;1037249;28;3960;-66
2021/12/08 01:05:19;;;;;;;;;;;;;;;;;;1034877;28;3052;-67
2021/12/08 01:05:51;;;;;;;;;;;;;;;;;;1037724;28;4031;-67
2021/12/08 01:06:21;;;;;;;;;;;;;;;;;;1039430;28;3033;-66
2021/12/08 01:06:51;;;;;;;;;;;;;;;;;;1036895;28;3918;-66
2021/12/08 01:07:22;;;;;;;;;;;;;;;;;;1036781;28;3087;-67
2021/12/08 01:07:52;;;;;;;;;;;;;;;;;;1036830;28;3887;-65
2021/12/08 01:08:24;;;;;;;;;;;;;;;;;;1038190;28;2919;-67
2021/12/08 01:08:54;;;;;;;;;;;;;;;;;;1032318;28;4018;-66
2021/12/08 01:09:25;;;;;;;;;;;;;;;;;;1032874;28;2979;-67
2021/12/08 01:09:55;;;;;;;;;;;;;;;;;;1032686;28;4313;-67
2021/12/08 01:10:26;;;;;;;;;;;;;;;;;;1036702;28;3050;-66
2021/12/08 01:10:58;;;;;;;;;;;;;;;;;;1034592;28;4093;-66
2021/12/08 01:11:29;;;;;;;;;;;;;;;;;;1028963;28;2857;-66
2021/12/08 01:12:01;;;;;;;;;;;;;;;;;;1025421;28;4071;-66
2021/12/08 01:12:32;;;;;;;;;;;;;;;;;;1030093;28;3133;-66
2021/12/08 01:13:06;;;;;;;;;;;;;;;;;;1034406;28;3911;-65
2021/12/08 01:13:37;;;;;;;;;;;;;;;;;;1039385;28;4061;-67
2021/12/08 01:14:07;;;;;;;;;;;;;;;;;;1041140;28;3426;-66
2021/12/08 01:14:37;;;;;;;;;;;;;;;;;;1030990;28;4426;-66
2021/12/08 01:15:08;;;;;;;;;;;;;;;;;;1034699;28;3575;-68
2021/12/08 01:15:39;;;;;;;;;;;;;;;;;;1034934;28;4131;-68
2021/12/08 01:16:10;;;;;;;;;;;;;;;;;;1039259;28;4215;-66
2021/12/08 01:16:41;;;;;;;;;;;;;;;;;;1033173;28;4294;-66
2021/12/08 01:17:11;;;;;;;;;;;;;;;;;;1033635;28;4119;-66
2021/12/08 01:17:41;;;;;;;;;;;;;;;;;;1034484;28;3895;-65
2021/12/08 01:18:12;;;;;;;;;;;;;;;;;;1034188;28;3007;-66
2021/12/08 01:18:42;;;;;;;;;;;;;;;;;;1040661;28;4101;-66
2021/12/08 01:19:12;;;;;;;;;;;;;;;;;;1037531;28;2224;-66
2021/12/08 01:19:42;;;;;;;;;;;;;;;;;;1040805;28;4046;-67
2021/12/08 01:20:14;;;;;;;;;;;;;;;;;;1034924;28;3657;-66
2021/12/08 01:20:45;;;;;;;;;;;;;;;;;;1035983;28;4060;-65
2021/12/08 01:21:17;;;;;;;;;;;;;;;;;;1033303;28;3169;-66
2021/12/08 01:21:48;;;;;;;;;;;;;;;;;;1035599;28;3880;-67
2021/12/08 01:22:18;;;;;;;;;;;;;;;;;;1040734;28;1448;-68
2021/12/08 01:22:48;;;;;;;;;;;;;;;;;;1040411;28;4095;-67
2021/12/08 01:23:19;;;;;;;;;;;;;;;;;;1042082;28;1638;-65
2021/12/08 01:23:49;;;;;;;;;;;;;;;;;;1040786;28;4031;-67
2021/12/08 01:24:20;;;;;;;;;;;;;;;;;;1042128;28;1574;-67
2021/12/08 01:24:50;;;;;;;;;;;;;;;;;;1039264;28;3906;-66
2021/12/08 01:25:21;;;;;;;;;;;;;;;;;;1039275;28;3248;-66
2021/12/08 01:25:51;;;;;;;;;;;;;;;;;;1039938;28;3947;-67
2021/12/08 01:26:21;;;;;;;;;;;;;;;;;;1041573;28;1829;-66
2021/12/08 01:26:51;;;;;;;;;;;;;;;;;;1041562;28;4045;-68
2021/12/08 01:27:22;;;;;;;;;;;;;;;;;;1041775;28;3091;-67
2021/12/08 01:27:52;;;;;;;;;;;;;;;;;;1039087;28;4145;-67
2021/12/08 01:28:23;;;;;;;;;;;;;;;;;;1039232;28;2624;-68
2021/12/08 01:28:56;;;;;;;;;;;;;;;;;;1041211;28;3911;-68
2021/12/08 01:29:27;;;;;;;;;;;;;;;;;;1041708;28;1514;-66
2021/12/08 01:29:57;;;;;;;;;;;;;;;;;;1039561;28;3832;-65
2021/12/08 01:30:27;;;;;;;;;;;;;;;;;;1039435;28;2655;-66
2021/12/08 01:31:00;;;;;;;;;;;;;;;;;;1036765;28;3826;-68
2021/12/08 01:31:30;;;;;;;;;;;;;;;;;;1036692;28;1637;-67
2021/12/08 01:32:00;;;;;;;;;;;;;;;;;;1037247;28;3897;-66
2021/12/08 01:32:31;;;;;;;;;;;;;;;;;;1032906;28;3729;-65
2021/12/08 01:33:01;;;;;;;;;;;;;;;;;;1037303;28;4022;-66
2021/12/08 01:33:33;;;;;;;;;;;;;;;;;;1036259;28;2452;-66
2021/12/08 01:34:04;;;;;;;;;;;;;;;;;;1036319;28;4006;-65
2021/12/08 01:34:34;;;;;;;;;;;;;;;;;;1033384;28;2698;-67
2021/12/08 01:35:05;;;;;;;;;;;;;;;;;;1036675;28;3815;-65
2021/12/08 01:35:36;;;;;;;;;;;;;;;;;;1038327;28;4023;-65
2021/12/08 01:36:06;;;;;;;;;;;;;;;;;;1040288;28;1764;-66
2021/12/08 01:36:37;;;;;;;;;;;;;;;;;;1041372;28;3993;-65
2021/12/08 01:37:07;;;;;;;;;;;;;;;;;;1041213;28;1613;-66
2021/12/08 01:37:38;;;;;;;;;;;;;;;;;;1041295;28;3881;-67
2021/12/08 01:38:08;;;;;;;;;;;;;;;;;;1038502;28;2567;-66
2021/12/08 01:38:39;;;;;;;;;;;;;;;;;;1038811;28;4042;-66
2021/12/08 01:39:09;;;;;;;;;;;;;;;;;;1042064;28;1546;-67
2021/12/08 01:39:40;;;;;;;;;;;;;;;;;;1040972;28;3888;-66
2021/12/08 01:40:12;;;;;;;;;;;;;;;;;;1041460;28;2097;-66
2021/12/08 01:40:42;;;;;;;;;;;;;;;;;;1040969;28;4306;-65
2021/12/08 01:41:13;;;;;;;;;;;;;;;;;;1039058;28;2864;-68
2021/12/08 01:41:44;;;;;;;;;;;;;;;;;;1040882;28;3876;-66
2021/12/08 01:42:18;;;;;;;;;;;;;;;;;;1040669;28;2641;-66
2021/12/08 01:42:50;;;;;;;;;;;;;;;;;;1041248;28;4078;-66
2021/12/08 01:43:29;;;;;;;;;;;;;;;;;;1040914;28;1390;-66
2021/12/08 01:46:26;;;;;;;;;;;;;;;;;;1040897;28;1904;-65
2021/12/08 01:46:57;;;;;;;;;;;;;;;;;;1040650;28;4025;-67
2021/12/08 01:47:27;;;;;;;;;;;;;;;;;;1041876;28;1612;-65
2021/12/08 01:47:58;;;;;;;;;;;;;;;;;;1041950;28;3978;-67
2021/12/08 01:48:30;;;;;;;;;;;;;;;;;;1038782;28;2908;-66
2021/12/08 01:49:01;;;;;;;;;;;;;;;;;;1040294;28;4059;-67
2021/12/08 01:49:31;;;;;;;;;;;;;;;;;;1042262;28;1669;-65
2021/12/08 01:50:02;;;;;;;;;;;;;;;;;;1039713;28;4064;-66
2021/12/08 01:50:32;;;;;;;;;;;;;;;;;;1042265;28;1788;-66
2021/12/08 01:51:09;;;;;;;;;;;;;;;;;;1040298;28;4009;-67
2021/12/08 01:51:39;;;;;;;;;;;;;;;;;;1041240;28;4046;-65
2021/12/08 01:52:10;;;;;;;;;;;;;;;;;;1039386;28;2242;-66
2021/12/08 01:52:40;;;;;;;;;;;;;;;;;;1041588;28;4058;-66
2021/12/08 01:53:11;;;;;;;;;;;;;;;;;;1039773;28;2836;-66
2021/12/08 01:53:42;;;;;;;;;;;;;;;;;;1041258;28;4063;-65
2021/12/08 01:54:13;;;;;;;;;;;;;;;;;;1042121;28;1792;-66
2021/12/08 01:54:43;;;;;;;;;;;;;;;;;;1040486;28;3989;-65
2021/12/08 01:55:13;;;;;;;;;;;;;;;;;;1042046;28;2311;-68
2021/12/08 01:55:44;;;;;;;;;;;;;;;;;;1040534;28;3928;-67
2021/12/08 01:56:15;;;;;;;;;;;;;;;;;;1041664;28;1586;-66
2021/12/08 01:56:45;;;;;;;;;;;;;;;;;;1040853;28;3928;-66
2021/12/08 01:57:15;;;;;;;;;;;;;;;;;;1042218;28;1720;-66
2021/12/08 01:57:46;;;;;;;;;;;;;;;;;;1040074;28;3876;-66
2021/12/08 01:58:16;;;;;;;;;;;;;;;;;;1040534;28;2121;-66
2021/12/08 01:58:47;;;;;;;;;;;;;;;;;;1040984;28;3906;-66
2021/12/08 01:59:17;;;;;;;;;;;;;;;;;;1041157;28;1495;-68
2021/12/08 01:59:47;;;;;;;;;;;;;;;;;;1041647;28;3869;-66
2021/12/08 02:00:23;;;;;;;;;;;;;;;;;;1036482;28;2876;-66
2021/12/08 02:00:55;;;;;;;;;;;;;;;;;;1040683;28;3919;-66
2021/12/08 02:01:28;;;;;;;;;;;;;;;;;;1040384;28;1677;-65
2021/12/08 02:01:58;;;;;;;;;;;;;;;;;;1042034;28;4014;-65
2021/12/08 02:02:28;;;;;;;;;;;;;;;;;;1040287;28;1643;-66
2021/12/08 02:02:59;;;;;;;;;;;;;;;;;;1038575;28;3882;-67
2021/12/08 02:03:30;;;;;;;;;;;;;;;;;;1038212;28;1957;-66
2021/12/08 02:04:04;;;;;;;;;;;;;;;;;;1040737;28;3922;-66
2021/12/08 02:04:36;;;;;;;;;;;;;;;;;;1039966;28;3940;-66
2021/12/08 02:05:06;;;;;;;;;;;;;;;;;;1039851;28;1739;-67
2021/12/08 02:05:37;;;;;;;;;;;;;;;;;;1041562;28;4079;-66
2021/12/08 02:06:08;;;;;;;;;;;;;;;;;;1035657;28;3262;-67
2021/12/08 02:06:41;;;;;;;;;;;;;;;;;;1036914;28;3814;-65
2021/12/08 02:07:11;;;;;;;;;;;;;;;;;;1036734;28;1980;-66
2021/12/08 02:07:42;;;;;;;;;;;;;;;;;;1037433;28;4451;-66
2021/12/08 02:08:12;;;;;;;;;;;;;;;;;;1041168;28;1844;-66
2021/12/08 02:08:43;;;;;;;;;;;;;;;;;;1040834;28;4038;-67
2021/12/08 02:09:14;;;;;;;;;;;;;;;;;;1040480;28;3461;-66
2021/12/08 02:09:45;;;;;;;;;;;;;;;;;;1039220;28;3887;-66
2021/12/08 02:10:15;;;;;;;;;;;;;;;;;;1042508;28;1701;-68
2021/12/08 02:10:45;;;;;;;;;;;;;;;;;;1039854;28;3966;-67
2021/12/08 02:11:16;;;;;;;;;;;;;;;;;;1041515;28;1707;-65
2021/12/08 02:11:46;;;;;;;;;;;;;;;;;;1040456;28;4174;-66
2021/12/08 02:12:16;;;;;;;;;;;;;;;;;;1041720;28;1638;-66
2021/12/08 02:12:47;;;;;;;;;;;;;;;;;;1040451;28;4063;-67
2021/12/08 02:13:19;;;;;;;;;;;;;;;;;;1041205;28;1699;-67
2021/12/08 02:13:52;;;;;;;;;;;;;;;;;;1039888;28;3850;-65
2021/12/08 02:14:22;;;;;;;;;;;;;;;;;;1039106;28;3630;-66
2021/12/08 02:14:53;;;;;;;;;;;;;;;;;;1040158;28;4263;-66
2021/12/08 02:15:23;;;;;;;;;;;;;;;;;;1039101;28;2042;-65
2021/12/08 02:15:53;;;;;;;;;;;;;;;;;;1039520;28;3902;-66
2021/12/08 02:16:24;;;;;;;;;;;;;;;;;;1041363;28;1840;-66
2021/12/08 02:16:55;;;;;;;;;;;;;;;;;;1036048;28;3826;-67
2021/12/08 02:17:26;;;;;;;;;;;;;;;;;;1037033;28;1640;-66
2021/12/08 02:17:56;;;;;;;;;;;;;;;;;;1034758;28;4165;-66
2021/12/08 02:18:26;;;;;;;;;;;;;;;;;;1033990;28;2860;-66
2021/12/08 02:18:57;;;;;;;;;;;;;;;;;;1040609;28;3884;-66
2021/12/08 02:19:28;;;;;;;;;;;;;;;;;;1040904;28;1801;-66
2021/12/08 02:19:58;;;;;;;;;;;;;;;;;;1038232;28;4057;-68
2021/12/08 02:20:29;;;;;;;;;;;;;;;;;;1041767;28;3715;-66
2021/12/08 02:21:00;;;;;;;;;;;;;;;;;;1038973;28;3798;-66
2021/12/08 02:21:33;;;;;;;;;;;;;;;;;;1042134;28;1391;-66
2021/12/08 02:22:03;;;;;;;;;;;;;;;;;;1040408;28;3823;-65
2021/12/08 02:22:33;;;;;;;;;;;;;;;;;;1037181;28;1643;-66
2021/12/08 02:23:04;;;;;;;;;;;;;;;;;;1036886;28;3849;-67
2021/12/08 02:23:34;;;;;;;;;;;;;;;;;;1037327;28;1613;-66
2021/12/08 02:24:09;;;;;;;;;;;;;;;;;;1037479;28;3999;-66
2021/12/08 02:24:39;;;;;;;;;;;;;;;;;;1038482;28;3892;-65
2021/12/08 02:25:11;;;;;;;;;;;;;;;;;;1039527;28;2934;-66
2021/12/08 02:25:41;;;;;;;;;;;;;;;;;;1040775;28;3820;-66
2021/12/08 02:26:11;;;;;;;;;;;;;;;;;;1041381;28;2282;-67
2021/12/08 02:26:43;;;;;;;;;;;;;;;;;;1037773;28;4042;-66
2021/12/08 02:27:13;;;;;;;;;;;;;;;;;;1041161;28;1409;-66
2021/12/08 02:27:44;;;;;;;;;;;;;;;;;;1041237;28;3896;-66
2021/12/08 02:28:14;;;;;;;;;;;;;;;;;;1040473;28;3129;-67
2021/12/08 02:28:45;;;;;;;;;;;;;;;;;;1040320;28;4263;-66
2021/12/08 02:29:21;;;;;;;;;;;;;;;;;;1041557;28;1942;-66
2021/12/08 02:29:57;;;;;;;;;;;;;;;;;;1038813;28;3964;-65
2021/12/08 02:30:37;;;;;;;;;;;;;;;;;;1041639;28;2132;-66
2021/12/08 02:31:11;;;;;;;;;;;;;;;;;;1040657;28;3761;-65
2021/12/08 02:31:56;;;;;;;;;;;;;;;;;;1040851;28;3880;-66
2021/12/08 02:32:41;;;;;;;;;;;;;;;;;;1041236;28;1266;-66
2021/12/08 02:47:30;;;;;;;;;;;;;;;;;;1038796;28;3786;-66
2021/12/08 02:48:01;;;;;;;;;;;;;;;;;;1041467;28;3792;-67
2021/12/08 02:48:31;;;;;;;;;;;;;;;;;;1038539;28;2482;-66
2021/12/08 02:49:02;;;;;;;;;;;;;;;;;;1040486;28;3845;-65
2021/12/08 02:49:32;;;;;;;;;;;;;;;;;;1041741;28;1572;-67
2021/12/08 02:50:03;;;;;;;;;;;;;;;;;;1039161;28;3772;-65
2021/12/08 02:50:36;;;;;;;;;;;;;;;;;;1039542;28;1486;-66
2021/12/08 02:51:06;;;;;;;;;;;;;;;;;;1039355;28;3938;-68
2021/12/08 02:51:38;;;;;;;;;;;;;;;;;;1036939;28;4215;-65
2021/12/08 02:52:10;;;;;;;;;;;;;;;;;;1036028;28;1752;-65
2021/12/08 02:52:40;;;;;;;;;;;;;;;;;;1036378;28;4070;-66
2021/12/08 02:53:11;;;;;;;;;;;;;;;;;;1036829;28;3462;-65
2021/12/08 02:53:42;;;;;;;;;;;;;;;;;;1039545;28;3917;-65
2021/12/08 02:54:12;;;;;;;;;;;;;;;;;;1039762;28;2262;-66
2021/12/08 02:54:45;;;;;;;;;;;;;;;;;;1041649;28;4095;-66
2021/12/08 02:55:15;;;;;;;;;;;;;;;;;;1040126;28;1932;-67
2021/12/08 02:55:46;;;;;;;;;;;;;;;;;;1036419;28;4067;-66
2021/12/08 02:56:17;;;;;;;;;;;;;;;;;;1036104;28;1905;-66
2021/12/08 02:56:48;;;;;;;;;;;;;;;;;;1032879;28;4100;-66
2021/12/08 02:57:23;;;;;;;;;;;;;;;;;;1032719;28;1607;-66
2021/12/08 02:57:55;;;;;;;;;;;;;;;;;;1034261;28;4043;-66
2021/12/08 02:58:25;;;;;;;;;;;;;;;;;;1037573;28;2273;-65
2021/12/08 02:58:55;;;;;;;;;;;;;;;;;;1039847;28;3902;-66
2021/12/08 02:59:25;;;;;;;;;;;;;;;;;;1040687;28;1586;-66
2021/12/08 02:59:56;;;;;;;;;;;;;;;;;;1041572;28;4083;-68
2021/12/08 03:00:28;;;;;;;;;;;;;;;;;;1036968;28;2239;-67
2021/12/08 03:01:01;;;;;;;;;;;;;;;;;;1035832;28;3828;-66
2021/12/08 03:01:32;;;;;;;;;;;;;;;;;;1035400;28;1991;-66
2021/12/08 03:02:03;;;;;;;;;;;;;;;;;;1036881;28;4362;-66
2021/12/08 03:02:33;;;;;;;;;;;;;;;;;;1037865;28;1593;-66
2021/12/08 03:03:04;;;;;;;;;;;;;;;;;;1039049;28;4034;-65
2021/12/08 03:03:35;;;;;;;;;;;;;;;;;;1040058;28;3435;-65
2021/12/08 03:04:06;;;;;;;;;;;;;;;;;;1041610;28;3856;-66
2021/12/08 03:04:36;;;;;;;;;;;;;;;;;;1041028;28;4076;-67
2021/12/08 03:05:07;;;;;;;;;;;;;;;;;;1040365;28;2719;-67
2021/12/08 03:05:37;;;;;;;;;;;;;;;;;;1040392;28;3882;-67
2021/12/08 03:06:07;;;;;;;;;;;;;;;;;;1041082;28;2395;-65
2021/12/08 03:06:38;;;;;;;;;;;;;;;;;;1039738;28;3877;-67
2021/12/08 03:07:08;;;;;;;;;;;;;;;;;;1041492;28;1592;-66
2021/12/08 03:07:38;;;;;;;;;;;;;;;;;;1041143;28;3857;-65
2021/12/08 03:08:09;;;;;;;;;;;;;;;;;;1041137;28;1595;-66
2021/12/08 03:08:39;;;;;;;;;;;;;;;;;;1041244;28;3880;-66
2021/12/08 03:09:10;;;;;;;;;;;;;;;;;;1038710;28;2453;-67
2021/12/08 03:09:40;;;;;;;;;;;;;;;;;;1041937;28;3870;-65
2021/12/08 03:10:12;;;;;;;;;;;;;;;;;;1040943;28;3117;-68
2021/12/08 03:10:44;;;;;;;;;;;;;;;;;;1040237;28;3992;-67
2021/12/08 03:11:14;;;;;;;;;;;;;;;;;;1040592;28;1551;-65
2021/12/08 03:11:46;;;;;;;;;;;;;;;;;;1040138;28;4055;-66
2021/12/08 03:12:26;;;;;;;;;;;;;;;;;;1040279;28;1691;-65
2021/12/08 03:12:57;;;;;;;;;;;;;;;;;;1040869;28;4164;-65
2021/12/08 03:13:28;;;;;;;;;;;;;;;;;;1039071;28;2269;-66
2021/12/08 03:14:00;;;;;;;;;;;;;;;;;;1040741;28;3890;-68
2021/12/08 03:14:31;;;;;;;;;;;;;;;;;;1041415;28;3590;-65
2021/12/08 03:15:02;;;;;;;;;;;;;;;;;;1037587;28;4030;-66
2021/12/08 03:15:33;;;;;;;;;;;;;;;;;;1041074;28;2182;-65
2021/12/08 03:16:04;;;;;;;;;;;;;;;;;;1041184;28;3824;-66
2021/12/08 03:16:36;;;;;;;;;;;;;;;;;;1042694;28;1332;-66
2021/12/08 03:17:08;;;;;;;;;;;;;;;;;;1041519;28;3816;-66
2021/12/08 03:17:38;;;;;;;;;;;;;;;;;;1042143;28;4079;-67
2021/12/08 03:18:09;;;;;;;;;;;;;;;;;;1039581;28;3509;-66
2021/12/08 03:18:40;;;;;;;;;;;;;;;;;;1041462;28;4038;-66
2021/12/08 03:19:10;;;;;;;;;;;;;;;;;;1042120;28;1316;-66
2021/12/08 03:19:40;;;;;;;;;;;;;;;;;;1040679;28;4069;-66
2021/12/08 03:20:14;;;;;;;;;;;;;;;;;;1039992;28;1746;-66
2021/12/08 03:20:46;;;;;;;;;;;;;;;;;;1041394;28;5147;-65
2021/12/08 03:21:16;;;;;;;;;;;;;;;;;;1040885;28;1520;-66
2021/12/08 03:21:46;;;;;;;;;;;;;;;;;;1041183;28;4061;-65
2021/12/08 03:22:17;;;;;;;;;;;;;;;;;;1042726;28;1642;-66
2021/12/08 03:22:49;;;;;;;;;;;;;;;;;;1041570;28;3998;-67
2021/12/08 03:23:23;;;;;;;;;;;;;;;;;;1042307;28;1952;-65
2021/12/08 03:24:17;;;;;;;;;;;;;;;;;;1041406;28;4132;-65
2021/12/08 03:24:48;;;;;;;;;;;;;;;;;;1041493;28;4026;-66
2021/12/08 03:25:22;;;;;;;;;;;;;;;;;;1041508;28;1677;-67
2021/12/08 03:25:56;;;;;;;;;;;;;;;;;;1041290;28;4031;-66
2021/12/08 03:26:31;;;;;;;;;;;;;;;;;;1041576;28;1642;-66
2021/12/08 03:27:37;;;;;;;;;;;;;;;;;;1040430;28;1756;-68
2021/12/08 03:28:16;;;;;;;;;;;;;;;;;;1041056;28;3825;-66
2021/12/08 03:28:58;;;;;;;;;;;;;;;;;;1038477;28;4065;-66
2021/12/08 03:29:44;;;;;;;;;;;;;;;;;;1041914;28;1699;-68
2021/12/08 03:30:20;;;;;;;;;;;;;;;;;;1039380;28;3700;-66
2021/12/08 03:31:16;;;;;;;;;;;;;;;;;;1041091;28;4047;-66
2021/12/08 03:31:44;;;;;;;;;;;;;;;;;;1041118;28;4110;-66
2021/12/08 03:32:17;;;;;;;;;;;;;;;;;;1040982;28;1663;-66
2021/12/08 03:32:47;;;;;;;;;;;;;;;;;;1040491;28;4264;-67
2021/12/08 03:33:18;;;;;;;;;;;;;;;;;;1041504;28;2128;-66
2021/12/08 03:33:48;;;;;;;;;;;;;;;;;;1042211;28;4086;-65
2021/12/08 03:34:22;;;;;;;;;;;;;;;;;;1040874;28;1612;-66
2021/12/08 03:34:53;;;;;;;;;;;;;;;;;;1041596;28;3975;-67
2021/12/08 03:35:24;;;;;;;;;;;;;;;;;;1041633;28;1834;-66
2021/12/08 03:35:54;;;;;;;;;;;;;;;;;;1041505;28;3883;-68
2021/12/08 03:36:24;;;;;;;;;;;;;;;;;;1041871;28;1918;-67
2021/12/08 03:36:55;;;;;;;;;;;;;;;;;;1040370;28;4076;-66
2021/12/08 03:37:29;;;;;;;;;;;;;;;;;;1042373;28;1663;-67
2021/12/08 03:38:00;;;;;;;;;;;;;;;;;;1041450;28;3930;-66
2021/12/08 03:38:31;;;;;;;;;;;;;;;;;;1042803;28;1689;-66
2021/12/08 03:39:02;;;;;;;;;;;;;;;;;;1041737;28;4209;-66
2021/12/08 03:39:33;;;;;;;;;;;;;;;;;;1041237;28;1581;-66
2021/12/08 03:40:08;;;;;;;;;;;;;;;;;;1040780;28;4018;-67
2021/12/08 03:40:39;;;;;;;;;;;;;;;;;;1042468;28;4213;-67
2021/12/08 03:41:11;;;;;;;;;;;;;;;;;;1041711;28;1675;-65
2021/12/08 03:41:41;;;;;;;;;;;;;;;;;;1040730;28;4024;-66
2021/12/08 03:42:12;;;;;;;;;;;;;;;;;;1040421;28;2043;-66
2021/12/08 03:42:43;;;;;;;;;;;;;;;;;;1040303;28;4250;-66
2021/12/08 03:43:14;;;;;;;;;;;;;;;;;;1041089;28;3261;-66
2021/12/08 03:43:44;;;;;;;;;;;;;;;;;;1040702;28;4103;-66
2021/12/08 03:44:15;;;;;;;;;;;;;;;;;;1037779;28;1655;-66
2021/12/08 03:44:45;;;;;;;;;;;;;;;;;;1036700;28;3882;-66
2021/12/08 03:45:36;;;;;;;;;;;;;;;;;;1040288;28;1933;-68
2021/12/08 03:46:11;;;;;;;;;;;;;;;;;;1043951;28;3842;-65
2021/12/08 03:46:42;;;;;;;;;;;;;;;;;;1043645;28;4041;-67
2021/12/08 03:47:14;;;;;;;;;;;;;;;;;;1040817;28;1335;-67
2021/12/08 03:47:46;;;;;;;;;;;;;;;;;;1039199;28;3899;-67
2021/12/08 03:48:21;;;;;;;;;;;;;;;;;;1042076;28;1597;-65
2021/12/08 03:48:51;;;;;;;;;;;;;;;;;;1040923;28;4619;-66
2021/12/08 03:49:21;;;;;;;;;;;;;;;;;;1041733;28;1977;-67
2021/12/08 03:49:52;;;;;;;;;;;;;;;;;;1041705;28;3839;-67
2021/12/08 03:50:22;;;;;;;;;;;;;;;;;;1041693;28;1536;-66
2021/12/08 03:50:53;;;;;;;;;;;;;;;;;;1040911;28;4032;-67
2021/12/08 03:51:24;;;;;;;;;;;;;;;;;;1040541;28;3127;-66
2021/12/08 03:52:01;;;;;;;;;;;;;;;;;;1039739;28;4018;-67
2021/12/08 03:52:31;;;;;;;;;;;;;;;;;;1037548;28;3080;-65
2021/12/08 03:53:02;;;;;;;;;;;;;;;;;;1041307;28;3990;-66
2021/12/08 03:53:32;;;;;;;;;;;;;;;;;;1042353;28;1594;-66
2021/12/08 03:54:03;;;;;;;;;;;;;;;;;;1041422;28;4071;-66
2021/12/08 03:54:33;;;;;;;;;;;;;;;;;;1040824;28;2526;-65
2021/12/08 03:55:05;;;;;;;;;;;;;;;;;;1041429;28;3992;-66
2021/12/08 03:55:35;;;;;;;;;;;;;;;;;;1041968;28;3912;-66
2021/12/08 03:56:06;;;;;;;;;;;;;;;;;;1040882;28;3007;-67
2021/12/08 03:56:36;;;;;;;;;;;;;;;;;;1040859;28;4227;-67
2021/12/08 03:57:07;;;;;;;;;;;;;;;;;;1042418;28;2760;-65
2021/12/08 03:57:37;;;;;;;;;;;;;;;;;;1035890;28;3901;-66
2021/12/08 03:58:08;;;;;;;;;;;;;;;;;;1037566;28;1754;-67
2021/12/08 03:58:38;;;;;;;;;;;;;;;;;;1036409;28;4159;-66
2021/12/08 03:59:09;;;;;;;;;;;;;;;;;;1035816;28;2217;-68